sensor_id;sensor_type;location;lat;lon;timestamp;temperature;humidity
37754;DHT22;23596;52.520;13.464;2022-10-31T00:01:52;13.30;99.90
37754;DHT22;23596;52.520;13.464;2022-10-31T00:04:17;13.30;99.90
37754;DHT22;23596;52.520;13.464;2022-10-31T00:06:43;13.30;99.90
37754;DHT22;23596;52.520;13.464;2022-10-31T00:09:09;14.30;99.90
37754;DHT22;23596;52.520;13.464;2022-10-31T00:11:35;13.20;99.90
37754;DHT22;23596;52.520;13.464;2022-10-31T00:14:01;13.20;99.90
37754;DHT22;23596;52.520;13.464;2022-10-31T00:16:28;13.20;99.90
37754;DHT22;23596;52.520;13.464;2022-10-31T00:18:56;13.20;99.90
37754;DHT22;23596;52.520;13.464;2022-10-31T00:21:22;13.20;99.90
37754;DHT22;23596;52.520;13.464;2022-10-31T00:23:48;13.20;99.90
37754;DHT22;23596;52.520;13.464;2022-10-31T00:26:14;13.20;99.90
37754;DHT22;23596;52.520;13.464;2022-10-31T00:28:39;13.20;99.90
37754;DHT22;23596;52.520;13.464;2022-10-31T00:31:07;13.20;99.90
37754;DHT22;23596;52.520;13.464;2022-10-31T00:33:34;13.20;99.90
37754;DHT22;23596;52.520;13.464;2022-10-31T00:36:02;13.10;99.90
37754;DHT22;23596;52.520;13.464;2022-10-31T00:38:28;13.20;99.90
37754;DHT22;23596;52.520;13.464;2022-10-31T00:40:53;13.10;99.90
37754;DHT22;23596;52.520;13.464;2022-10-31T00:43:19;13.20;99.90
37754;DHT22;23596;52.520;13.464;2022-10-31T00:45:45;13.10;99.90
37754;DHT22;23596;52.520;13.464;2022-10-31T00:48:10;13.10;99.90
37754;DHT22;23596;52.520;13.464;2022-10-31T00:50:36;13.00;99.90
37754;DHT22;23596;52.520;13.464;2022-10-31T00:53:02;13.00;99.90
37754;DHT22;23596;52.520;13.464;2022-10-31T00:55:28;13.10;99.90
37754;DHT22;23596;52.520;13.464;2022-10-31T00:57:53;13.00;99.90
37754;DHT22;23596;52.520;13.464;2022-10-31T01:00:19;13.00;99.90
37754;DHT22;23596;52.520;13.464;2022-10-31T01:02:44;13.00;99.90
37754;DHT22;23596;52.520;13.464;2022-10-31T01:05:10;13.10;99.90
37754;DHT22;23596;52.520;13.464;2022-10-31T01:07:37;13.00;99.90
37754;DHT22;23596;52.520;13.464;2022-10-31T01:10:03;12.90;99.90
37754;DHT22;23596;52.520;13.464;2022-10-31T01:12:29;12.90;99.90
37754;DHT22;23596;52.520;13.464;2022-10-31T01:14:55;13.00;99.90
37754;DHT22;23596;52.520;13.464;2022-10-31T01:17:20;13.00;99.90
37754;DHT22;23596;52.520;13.464;2022-10-31T01:19:46;13.00;99.90
37754;DHT22;23596;52.520;13.464;2022-10-31T01:22:11;12.90;99.90
37754;DHT22;23596;52.520;13.464;2022-10-31T01:24:37;12.90;99.90
37754;DHT22;23596;52.520;13.464;2022-10-31T01:27:02;12.90;99.90
37754;DHT22;23596;52.520;13.464;2022-10-31T01:29:28;12.90;99.90
37754;DHT22;23596;52.520;13.464;2022-10-31T01:31:53;12.90;99.90
37754;DHT22;23596;52.520;13.464;2022-10-31T01:34:19;12.90;99.90
37754;DHT22;23596;52.520;13.464;2022-10-31T01:36:45;12.90;99.90
37754;DHT22;23596;52.520;13.464;2022-10-31T01:39:17;12.90;99.90
37754;DHT22;23596;52.520;13.464;2022-10-31T01:41:51;12.90;99.90
37754;DHT22;23596;52.520;13.464;2022-10-31T01:49:34;12.80;99.90
37754;DHT22;23596;52.520;13.464;2022-10-31T01:52:24;12.80;99.90
37754;DHT22;23596;52.520;13.464;2022-10-31T01:55:18;12.80;99.90
37754;DHT22;23596;52.520;13.464;2022-10-31T01:57:47;12.80;99.90
37754;DHT22;23596;52.520;13.464;2022-10-31T02:00:14;12.70;99.90
37754;DHT22;23596;52.520;13.464;2022-10-31T02:02:40;12.70;99.90
37754;DHT22;23596;52.520;13.464;2022-10-31T02:05:10;12.70;99.90
37754;DHT22;23596;52.520;13.464;2022-10-31T02:08:08;12.70;99.90
37754;DHT22;23596;52.520;13.464;2022-10-31T02:10:36;12.70;99.90
37754;DHT22;23596;52.520;13.464;2022-10-31T02:13:03;12.60;99.90
37754;DHT22;23596;52.520;13.464;2022-10-31T02:15:30;12.70;99.90
37754;DHT22;23596;52.520;13.464;2022-10-31T02:17:56;12.70;99.90
37754;DHT22;23596;52.520;13.464;2022-10-31T02:20:24;12.70;99.90
37754;DHT22;23596;52.520;13.464;2022-10-31T02:31:34;12.50;99.90
37754;DHT22;23596;52.520;13.464;2022-10-31T02:34:10;12.50;99.90
37754;DHT22;23596;52.520;13.464;2022-10-31T02:36:45;12.50;99.90
37754;DHT22;23596;52.520;13.464;2022-10-31T02:39:23;12.50;99.90
37754;DHT22;23596;52.520;13.464;2022-10-31T02:44:49;12.50;99.90
37754;DHT22;23596;52.520;13.464;2022-10-31T02:47:29;12.50;99.90
37754;DHT22;23596;52.520;13.464;2022-10-31T02:50:11;12.60;99.90
37754;DHT22;23596;52.520;13.464;2022-10-31T02:52:37;12.60;99.90
37754;DHT22;23596;52.520;13.464;2022-10-31T02:55:12;12.60;99.90
37754;DHT22;23596;52.520;13.464;2022-10-31T02:57:40;12.60;99.90
37754;DHT22;23596;52.520;13.464;2022-10-31T03:00:08;12.60;99.90
37754;DHT22;23596;52.520;13.464;2022-10-31T03:08:32;12.60;99.90
37754;DHT22;23596;52.520;13.464;2022-10-31T03:11:03;12.50;99.90
37754;DHT22;23596;52.520;13.464;2022-10-31T03:13:37;12.50;99.90
37754;DHT22;23596;52.520;13.464;2022-10-31T03:19:00;12.40;99.90
37754;DHT22;23596;52.520;13.464;2022-10-31T03:21:33;12.40;99.90
37754;DHT22;23596;52.520;13.464;2022-10-31T03:24:01;12.40;99.90
37754;DHT22;23596;52.520;13.464;2022-10-31T03:26:27;12.30;99.90
37754;DHT22;23596;52.520;13.464;2022-10-31T03:28:58;12.40;99.90
37754;DHT22;23596;52.520;13.464;2022-10-31T03:31:28;12.30;99.90
37754;DHT22;23596;52.520;13.464;2022-10-31T03:33:56;12.30;99.90
37754;DHT22;23596;52.520;13.464;2022-10-31T03:36:26;12.30;99.90
37754;DHT22;23596;52.520;13.464;2022-10-31T03:38:52;12.30;99.90
37754;DHT22;23596;52.520;13.464;2022-10-31T03:41:22;12.30;99.90
37754;DHT22;23596;52.520;13.464;2022-10-31T03:43:54;12.30;99.90
37754;DHT22;23596;52.520;13.464;2022-10-31T03:46:20;12.20;99.90
37754;DHT22;23596;52.520;13.464;2022-10-31T03:48:46;12.30;99.90
37754;DHT22;23596;52.520;13.464;2022-10-31T03:57:34;12.80;99.90
37754;DHT22;23596;52.520;13.464;2022-10-31T04:00:10;12.90;99.90
37754;DHT22;23596;52.520;13.464;2022-10-31T04:02:40;13.00;99.90
37754;DHT22;23596;52.520;13.464;2022-10-31T04:05:07;13.00;99.90
37754;DHT22;23596;52.520;13.464;2022-10-31T04:07:37;13.10;99.90
37754;DHT22;23596;52.520;13.464;2022-10-31T04:10:09;13.10;99.90
37754;DHT22;23596;52.520;13.464;2022-10-31T04:12:37;13.10;99.90
37754;DHT22;23596;52.520;13.464;2022-10-31T04:15:06;13.10;99.90
37754;DHT22;23596;52.520;13.464;2022-10-31T04:17:35;13.20;99.90
37754;DHT22;23596;52.520;13.464;2022-10-31T04:20:02;13.20;99.90
37754;DHT22;23596;52.520;13.464;2022-10-31T04:22:27;13.30;99.90
37754;DHT22;23596;52.520;13.464;2022-10-31T04:24:53;13.30;99.90
37754;DHT22;23596;52.520;13.464;2022-10-31T04:27:19;13.30;99.90
37754;DHT22;23596;52.520;13.464;2022-10-31T04:29:44;13.20;99.90
37754;DHT22;23596;52.520;13.464;2022-10-31T04:32:10;13.10;99.90
37754;DHT22;23596;52.520;13.464;2022-10-31T04:34:35;13.10;99.90
37754;DHT22;23596;52.520;13.464;2022-10-31T04:37:01;13.10;99.90
37754;DHT22;23596;52.520;13.464;2022-10-31T04:39:26;14.10;99.90
37754;DHT22;23596;52.520;13.464;2022-10-31T04:41:52;13.10;99.90
37754;DHT22;23596;52.520;13.464;2022-10-31T04:44:17;13.00;99.90
37754;DHT22;23596;52.520;13.464;2022-10-31T04:46:43;13.00;99.90
37754;DHT22;23596;52.520;13.464;2022-10-31T04:49:08;13.00;99.90
37754;DHT22;23596;52.520;13.464;2022-10-31T04:51:34;13.00;99.90
37754;DHT22;23596;52.520;13.464;2022-10-31T04:53:59;13.00;99.90
37754;DHT22;23596;52.520;13.464;2022-10-31T04:56:25;13.10;99.90
37754;DHT22;23596;52.520;13.464;2022-10-31T04:58:51;13.10;99.90
37754;DHT22;23596;52.520;13.464;2022-10-31T05:01:16;13.20;99.90
37754;DHT22;23596;52.520;13.464;2022-10-31T05:03:42;13.20;99.90
37754;DHT22;23596;52.520;13.464;2022-10-31T05:06:07;13.30;99.90
37754;DHT22;23596;52.520;13.464;2022-10-31T05:08:33;13.30;99.90
37754;DHT22;23596;52.520;13.464;2022-10-31T05:11:03;13.30;99.90
37754;DHT22;23596;52.520;13.464;2022-10-31T05:13:29;13.40;99.90
37754;DHT22;23596;52.520;13.464;2022-10-31T05:15:54;13.40;99.90
37754;DHT22;23596;52.520;13.464;2022-10-31T05:18:20;13.40;99.90
37754;DHT22;23596;52.520;13.464;2022-10-31T05:20:46;13.40;99.90
37754;DHT22;23596;52.520;13.464;2022-10-31T05:23:11;13.40;99.90
37754;DHT22;23596;52.520;13.464;2022-10-31T05:25:37;13.40;99.90
37754;DHT22;23596;52.520;13.464;2022-10-31T05:28:03;13.50;99.90
37754;DHT22;23596;52.520;13.464;2022-10-31T05:30:30;13.50;99.90
37754;DHT22;23596;52.520;13.464;2022-10-31T05:32:56;13.50;99.90
37754;DHT22;23596;52.520;13.464;2022-10-31T05:35:30;13.50;99.90
37754;DHT22;23596;52.520;13.464;2022-10-31T05:37:56;13.50;99.90
37754;DHT22;23596;52.520;13.464;2022-10-31T05:40:23;13.50;99.90
37754;DHT22;23596;52.520;13.464;2022-10-31T05:42:51;13.40;99.90
37754;DHT22;23596;52.520;13.464;2022-10-31T05:45:18;13.40;99.90
37754;DHT22;23596;52.520;13.464;2022-10-31T05:47:54;13.40;99.90
37754;DHT22;23596;52.520;13.464;2022-10-31T05:50:21;13.40;99.90
37754;DHT22;23596;52.520;13.464;2022-10-31T05:52:47;13.40;99.90
37754;DHT22;23596;52.520;13.464;2022-10-31T05:55:12;13.30;99.90
37754;DHT22;23596;52.520;13.464;2022-10-31T05:57:38;13.40;99.90
37754;DHT22;23596;52.520;13.464;2022-10-31T06:00:04;13.40;99.90
37754;DHT22;23596;52.520;13.464;2022-10-31T06:02:30;13.40;99.90
37754;DHT22;23596;52.520;13.464;2022-10-31T06:05:00;13.40;99.90
37754;DHT22;23596;52.520;13.464;2022-10-31T06:07:25;13.40;99.90
37754;DHT22;23596;52.520;13.464;2022-10-31T06:09:51;13.40;99.90
37754;DHT22;23596;52.520;13.464;2022-10-31T06:12:16;13.40;99.90
37754;DHT22;23596;52.520;13.464;2022-10-31T06:14:42;13.50;99.90
37754;DHT22;23596;52.520;13.464;2022-10-31T06:17:07;13.40;99.90
37754;DHT22;23596;52.520;13.464;2022-10-31T06:19:33;13.40;99.90
37754;DHT22;23596;52.520;13.464;2022-10-31T06:21:58;13.40;99.90
37754;DHT22;23596;52.520;13.464;2022-10-31T06:24:24;13.40;99.90
37754;DHT22;23596;52.520;13.464;2022-10-31T06:26:49;13.40;99.90
37754;DHT22;23596;52.520;13.464;2022-10-31T06:29:15;13.40;99.90
37754;DHT22;23596;52.520;13.464;2022-10-31T06:31:40;13.40;99.90
37754;DHT22;23596;52.520;13.464;2022-10-31T06:34:06;13.40;99.90
37754;DHT22;23596;52.520;13.464;2022-10-31T06:36:31;13.40;99.90
37754;DHT22;23596;52.520;13.464;2022-10-31T06:38:57;13.70;99.90
37754;DHT22;23596;52.520;13.464;2022-10-31T06:41:22;13.40;99.90
37754;DHT22;23596;52.520;13.464;2022-10-31T06:43:48;13.40;99.90
37754;DHT22;23596;52.520;13.464;2022-10-31T06:46:14;13.40;99.90
37754;DHT22;23596;52.520;13.464;2022-10-31T06:48:41;13.40;99.90
37754;DHT22;23596;52.520;13.464;2022-10-31T06:51:07;13.40;99.90
37754;DHT22;23596;52.520;13.464;2022-10-31T06:53:32;13.40;99.90
37754;DHT22;23596;52.520;13.464;2022-10-31T06:55:58;13.50;99.90
37754;DHT22;23596;52.520;13.464;2022-10-31T06:58:23;13.50;99.90
37754;DHT22;23596;52.520;13.464;2022-10-31T07:00:49;13.50;99.90
37754;DHT22;23596;52.520;13.464;2022-10-31T07:03:15;13.50;99.90
37754;DHT22;23596;52.520;13.464;2022-10-31T07:05:42;13.50;99.90
37754;DHT22;23596;52.520;13.464;2022-10-31T07:08:09;13.50;99.90
37754;DHT22;23596;52.520;13.464;2022-10-31T07:10:36;13.60;99.90
37754;DHT22;23596;52.520;13.464;2022-10-31T07:13:04;13.60;99.90
37754;DHT22;23596;52.520;13.464;2022-10-31T07:15:33;13.60;99.90
37754;DHT22;23596;52.520;13.464;2022-10-31T07:18:00;13.70;99.90
37754;DHT22;23596;52.520;13.464;2022-10-31T07:20:27;13.70;99.90
37754;DHT22;23596;52.520;13.464;2022-10-31T07:22:52;13.80;99.90
37754;DHT22;23596;52.520;13.464;2022-10-31T07:25:18;13.80;99.90
37754;DHT22;23596;52.520;13.464;2022-10-31T07:27:43;13.80;99.90
37754;DHT22;23596;52.520;13.464;2022-10-31T07:30:10;13.90;99.90
37754;DHT22;23596;52.520;13.464;2022-10-31T07:32:50;13.90;99.90
37754;DHT22;23596;52.520;13.464;2022-10-31T07:35:21;13.90;99.90
37754;DHT22;23596;52.520;13.464;2022-10-31T07:37:47;14.00;99.90
37754;DHT22;23596;52.520;13.464;2022-10-31T07:40:13;14.10;99.90
37754;DHT22;23596;52.520;13.464;2022-10-31T07:42:41;14.10;99.90
37754;DHT22;23596;52.520;13.464;2022-10-31T07:45:08;14.10;99.90
37754;DHT22;23596;52.520;13.464;2022-10-31T07:47:41;14.20;99.90
37754;DHT22;23596;52.520;13.464;2022-10-31T07:50:08;14.30;99.90
37754;DHT22;23596;52.520;13.464;2022-10-31T07:52:34;14.30;99.90
37754;DHT22;23596;52.520;13.464;2022-10-31T07:55:00;14.40;99.90
37754;DHT22;23596;52.520;13.464;2022-10-31T07:57:26;14.30;99.90
37754;DHT22;23596;52.520;13.464;2022-10-31T07:59:51;14.30;99.90
37754;DHT22;23596;52.520;13.464;2022-10-31T08:02:17;14.30;99.90
37754;DHT22;23596;52.520;13.464;2022-10-31T08:04:42;14.40;99.90
37754;DHT22;23596;52.520;13.464;2022-10-31T08:07:08;14.30;99.90
37754;DHT22;23596;52.520;13.464;2022-10-31T08:09:34;14.30;99.90
37754;DHT22;23596;52.520;13.464;2022-10-31T08:11:59;14.40;99.90
37754;DHT22;23596;52.520;13.464;2022-10-31T08:14:25;14.30;99.90
37754;DHT22;23596;52.520;13.464;2022-10-31T08:16:52;14.40;99.90
37754;DHT22;23596;52.520;13.464;2022-10-31T08:19:18;14.40;99.90
37754;DHT22;23596;52.520;13.464;2022-10-31T08:21:43;14.40;99.90
37754;DHT22;23596;52.520;13.464;2022-10-31T08:24:09;14.40;99.90
37754;DHT22;23596;52.520;13.464;2022-10-31T08:26:34;14.40;99.90
37754;DHT22;23596;52.520;13.464;2022-10-31T08:29:00;14.40;99.90
37754;DHT22;23596;52.520;13.464;2022-10-31T08:31:27;14.30;99.90
37754;DHT22;23596;52.520;13.464;2022-10-31T08:33:52;14.90;99.90
37754;DHT22;23596;52.520;13.464;2022-10-31T08:36:19;14.30;99.90
37754;DHT22;23596;52.520;13.464;2022-10-31T08:38:46;14.40;99.90
37754;DHT22;23596;52.520;13.464;2022-10-31T08:41:12;14.30;99.90
37754;DHT22;23596;52.520;13.464;2022-10-31T08:43:37;14.30;99.90
37754;DHT22;23596;52.520;13.464;2022-10-31T08:46:02;14.30;99.90
37754;DHT22;23596;52.520;13.464;2022-10-31T08:48:28;14.30;99.90
37754;DHT22;23596;52.520;13.464;2022-10-31T08:50:56;14.30;99.90
37754;DHT22;23596;52.520;13.464;2022-10-31T08:53:23;14.30;99.90
37754;DHT22;23596;52.520;13.464;2022-10-31T08:55:49;14.30;99.90
37754;DHT22;23596;52.520;13.464;2022-10-31T08:58:16;14.30;99.90
37754;DHT22;23596;52.520;13.464;2022-10-31T09:00:43;14.30;99.90
37754;DHT22;23596;52.520;13.464;2022-10-31T09:03:15;14.30;99.90
37754;DHT22;23596;52.520;13.464;2022-10-31T09:05:41;14.30;99.90
37754;DHT22;23596;52.520;13.464;2022-10-31T09:08:08;14.30;99.90
37754;DHT22;23596;52.520;13.464;2022-10-31T09:10:35;14.40;99.90
37754;DHT22;23596;52.520;13.464;2022-10-31T09:13:09;14.40;99.90
37754;DHT22;23596;52.520;13.464;2022-10-31T09:15:37;14.40;99.90
37754;DHT22;23596;52.520;13.464;2022-10-31T09:18:07;14.40;99.90
37754;DHT22;23596;52.520;13.464;2022-10-31T09:20:35;14.40;99.90
37754;DHT22;23596;52.520;13.464;2022-10-31T09:23:06;14.40;99.90
37754;DHT22;23596;52.520;13.464;2022-10-31T09:25:32;14.50;99.90
37754;DHT22;23596;52.520;13.464;2022-10-31T09:27:59;14.60;99.90
37754;DHT22;23596;52.520;13.464;2022-10-31T09:30:26;14.60;99.90
37754;DHT22;23596;52.520;13.464;2022-10-31T09:32:56;14.70;99.90
37754;DHT22;23596;52.520;13.464;2022-10-31T09:35:22;14.80;99.90
37754;DHT22;23596;52.520;13.464;2022-10-31T09:37:54;14.80;99.90
37754;DHT22;23596;52.520;13.464;2022-10-31T09:40:20;14.80;99.90
37754;DHT22;23596;52.520;13.464;2022-10-31T09:42:58;14.80;99.90
37754;DHT22;23596;52.520;13.464;2022-10-31T09:48:22;14.80;99.90
37754;DHT22;23596;52.520;13.464;2022-10-31T09:51:18;14.90;99.90
37754;DHT22;23596;52.520;13.464;2022-10-31T09:53:52;14.90;99.90
37754;DHT22;23596;52.520;13.464;2022-10-31T09:56:20;15.00;99.90
37754;DHT22;23596;52.520;13.464;2022-10-31T09:58:52;15.00;99.90
37754;DHT22;23596;52.520;13.464;2022-10-31T10:04:51;15.00;99.90
37754;DHT22;23596;52.520;13.464;2022-10-31T10:06:50;15.00;99.90
37754;DHT22;23596;52.520;13.464;2022-10-31T10:09:16;14.90;99.90
37754;DHT22;23596;52.520;13.464;2022-10-31T10:12:03;15.00;99.90
37754;DHT22;23596;52.520;13.464;2022-10-31T10:22:38;15.10;99.90
37754;DHT22;23596;52.520;13.464;2022-10-31T10:30:20;15.40;99.90
37754;DHT22;23596;52.520;13.464;2022-10-31T10:32:49;15.50;99.90
37754;DHT22;23596;52.520;13.464;2022-10-31T10:35:23;15.50;99.90
37754;DHT22;23596;52.520;13.464;2022-10-31T10:37:53;15.50;99.90
37754;DHT22;23596;52.520;13.464;2022-10-31T10:40:24;15.50;99.90
37754;DHT22;23596;52.520;13.464;2022-10-31T10:43:15;15.50;99.90
37754;DHT22;23596;52.520;13.464;2022-10-31T10:51:38;15.70;99.90
37754;DHT22;23596;52.520;13.464;2022-10-31T10:57:35;15.70;99.90
37754;DHT22;23596;52.520;13.464;2022-10-31T11:00:25;15.80;99.90
37754;DHT22;23596;52.520;13.464;2022-10-31T11:02:52;15.90;99.90
37754;DHT22;23596;52.520;13.464;2022-10-31T11:05:53;15.90;99.90
37754;DHT22;23596;52.520;13.464;2022-10-31T11:08:34;15.90;99.90
37754;DHT22;23596;52.520;13.464;2022-10-31T11:11:03;15.90;99.90
37754;DHT22;23596;52.520;13.464;2022-10-31T11:13:30;16.10;99.90
37754;DHT22;23596;52.520;13.464;2022-10-31T11:15:57;16.20;99.90
37754;DHT22;23596;52.520;13.464;2022-10-31T11:18:27;16.40;99.90
37754;DHT22;23596;52.520;13.464;2022-10-31T11:20:56;16.40;99.90
37754;DHT22;23596;52.520;13.464;2022-10-31T11:23:24;16.60;99.90
37754;DHT22;23596;52.520;13.464;2022-10-31T11:25:56;16.60;99.90
37754;DHT22;23596;52.520;13.464;2022-10-31T11:28:22;16.70;99.90
37754;DHT22;23596;52.520;13.464;2022-10-31T11:30:51;16.80;99.90
37754;DHT22;23596;52.520;13.464;2022-10-31T11:33:48;16.80;99.90
37754;DHT22;23596;52.520;13.464;2022-10-31T11:36:26;16.80;99.90
37754;DHT22;23596;52.520;13.464;2022-10-31T11:38:53;16.80;99.90
37754;DHT22;23596;52.520;13.464;2022-10-31T11:41:28;16.90;99.90
37754;DHT22;23596;52.520;13.464;2022-10-31T11:44:01;16.90;99.90
37754;DHT22;23596;52.520;13.464;2022-10-31T11:46:37;16.90;99.90
37754;DHT22;23596;52.520;13.464;2022-10-31T11:49:05;16.90;99.90
37754;DHT22;23596;52.520;13.464;2022-10-31T11:51:37;16.90;99.90
37754;DHT22;23596;52.520;13.464;2022-10-31T11:54:03;16.90;99.90
37754;DHT22;23596;52.520;13.464;2022-10-31T11:56:39;16.90;99.90
37754;DHT22;23596;52.520;13.464;2022-10-31T11:59:36;17.10;99.90
37754;DHT22;23596;52.520;13.464;2022-10-31T12:02:01;17.20;99.90
37754;DHT22;23596;52.520;13.464;2022-10-31T12:04:39;17.40;99.90
37754;DHT22;23596;52.520;13.464;2022-10-31T12:07:05;17.60;99.90
37754;DHT22;23596;52.520;13.464;2022-10-31T12:09:35;17.60;99.90
37754;DHT22;23596;52.520;13.464;2022-10-31T12:12:17;17.60;99.90
37754;DHT22;23596;52.520;13.464;2022-10-31T12:18:11;17.60;99.90
37754;DHT22;23596;52.520;13.464;2022-10-31T12:21:14;17.60;99.90
37754;DHT22;23596;52.520;13.464;2022-10-31T12:26:27;17.70;99.90
37754;DHT22;23596;52.520;13.464;2022-10-31T12:33:52;17.80;99.90
37754;DHT22;23596;52.520;13.464;2022-10-31T12:36:40;17.90;99.90
37754;DHT22;23596;52.520;13.464;2022-10-31T12:47:46;18.30;99.90
37754;DHT22;23596;52.520;13.464;2022-10-31T12:50:35;18.30;99.90
37754;DHT22;23596;52.520;13.464;2022-10-31T12:58:38;18.30;99.90
37754;DHT22;23596;52.520;13.464;2022-10-31T13:06:20;18.30;99.90
37754;DHT22;23596;52.520;13.464;2022-10-31T13:09:10;18.30;99.90
37754;DHT22;23596;52.520;13.464;2022-10-31T13:11:45;18.30;99.90
37754;DHT22;23596;52.520;13.464;2022-10-31T13:14:30;18.40;99.90
37754;DHT22;23596;52.520;13.464;2022-10-31T13:16:59;18.40;99.90
37754;DHT22;23596;52.520;13.464;2022-10-31T13:19:33;18.40;99.90
37754;DHT22;23596;52.520;13.464;2022-10-31T13:22:14;18.40;99.90
37754;DHT22;23596;52.520;13.464;2022-10-31T13:27:20;18.50;99.90
37754;DHT22;23596;52.520;13.464;2022-10-31T13:30:03;18.50;99.90
37754;DHT22;23596;52.520;13.464;2022-10-31T13:32:38;18.50;99.90
37754;DHT22;23596;52.520;13.464;2022-10-31T13:35:13;18.60;99.90
37754;DHT22;23596;52.520;13.464;2022-10-31T13:37:46;18.60;99.90
37754;DHT22;23596;52.520;13.464;2022-10-31T13:40:33;18.60;99.90
37754;DHT22;23596;52.520;13.464;2022-10-31T13:43:30;18.60;99.90
37754;DHT22;23596;52.520;13.464;2022-10-31T13:45:57;18.60;99.90
37754;DHT22;23596;52.520;13.464;2022-10-31T13:51:07;18.60;99.90
37754;DHT22;23596;52.520;13.464;2022-10-31T13:56:11;18.60;99.90
37754;DHT22;23596;52.520;13.464;2022-10-31T13:58:43;18.60;99.90
37754;DHT22;23596;52.520;13.464;2022-10-31T14:01:19;18.60;99.90
37754;DHT22;23596;52.520;13.464;2022-10-31T14:04:12;18.60;99.90
37754;DHT22;23596;52.520;13.464;2022-10-31T14:09:23;18.60;99.90
37754;DHT22;23596;52.520;13.464;2022-10-31T14:11:50;18.60;99.90
37754;DHT22;23596;52.520;13.464;2022-10-31T14:14:17;18.50;99.90
37754;DHT22;23596;52.520;13.464;2022-10-31T14:16:45;18.50;99.90
37754;DHT22;23596;52.520;13.464;2022-10-31T14:19:17;18.50;99.90
37754;DHT22;23596;52.520;13.464;2022-10-31T14:21:45;18.50;99.90
37754;DHT22;23596;52.520;13.464;2022-10-31T14:24:28;18.70;99.90
37754;DHT22;23596;52.520;13.464;2022-10-31T14:27:03;18.40;99.90
37754;DHT22;23596;52.520;13.464;2022-10-31T14:29:31;18.40;99.90
37754;DHT22;23596;52.520;13.464;2022-10-31T14:32:26;18.30;99.90
37754;DHT22;23596;52.520;13.464;2022-10-31T14:34:55;18.30;99.90
37754;DHT22;23596;52.520;13.464;2022-10-31T14:37:46;18.20;99.90
37754;DHT22;23596;52.520;13.464;2022-10-31T14:40:35;18.20;99.90
37754;DHT22;23596;52.520;13.464;2022-10-31T14:43:16;18.10;99.90
37754;DHT22;23596;52.520;13.464;2022-10-31T14:45:48;18.10;99.90
37754;DHT22;23596;52.520;13.464;2022-10-31T14:51:20;17.90;99.90
37754;DHT22;23596;52.520;13.464;2022-10-31T14:53:52;17.90;99.90
37754;DHT22;23596;52.520;13.464;2022-10-31T14:56:42;17.90;99.90
37754;DHT22;23596;52.520;13.464;2022-10-31T14:59:15;17.80;99.90
37754;DHT22;23596;52.520;13.464;2022-10-31T15:01:52;17.70;99.90
37754;DHT22;23596;52.520;13.464;2022-10-31T15:04:23;17.60;99.90
37754;DHT22;23596;52.520;13.464;2022-10-31T15:07:16;17.50;99.90
37754;DHT22;23596;52.520;13.464;2022-10-31T15:09:44;17.40;99.90
37754;DHT22;23596;52.520;13.464;2022-10-31T15:12:24;17.30;99.90
37754;DHT22;23596;52.520;13.464;2022-10-31T15:14:50;17.20;99.90
37754;DHT22;23596;52.520;13.464;2022-10-31T15:17:17;17.10;99.90
37754;DHT22;23596;52.520;13.464;2022-10-31T15:19:43;17.10;99.90
37754;DHT22;23596;52.520;13.464;2022-10-31T15:22:16;17.00;99.90
37754;DHT22;23596;52.520;13.464;2022-10-31T15:24:42;17.00;99.90
37754;DHT22;23596;52.520;13.464;2022-10-31T15:27:16;16.90;99.90
37754;DHT22;23596;52.520;13.464;2022-10-31T15:29:55;16.80;99.90
37754;DHT22;23596;52.520;13.464;2022-10-31T15:32:27;16.80;99.90
37754;DHT22;23596;52.520;13.464;2022-10-31T15:34:54;16.70;99.90
37754;DHT22;23596;52.520;13.464;2022-10-31T15:37:21;16.70;99.90
37754;DHT22;23596;52.520;13.464;2022-10-31T15:39:48;16.60;99.90
37754;DHT22;23596;52.520;13.464;2022-10-31T15:44:48;16.50;99.90
37754;DHT22;23596;52.520;13.464;2022-10-31T15:47:20;16.50;99.90
37754;DHT22;23596;52.520;13.464;2022-10-31T15:54:54;16.30;99.90
37754;DHT22;23596;52.520;13.464;2022-10-31T15:57:22;16.30;99.90
37754;DHT22;23596;52.520;13.464;2022-10-31T15:59:49;16.20;99.90
37754;DHT22;23596;52.520;13.464;2022-10-31T16:02:20;16.20;99.90
37754;DHT22;23596;52.520;13.464;2022-10-31T16:04:57;16.10;99.90
37754;DHT22;23596;52.520;13.464;2022-10-31T16:07:24;16.10;99.90
37754;DHT22;23596;52.520;13.464;2022-10-31T16:09:57;16.00;99.90
37754;DHT22;23596;52.520;13.464;2022-10-31T16:12:24;16.00;99.90
37754;DHT22;23596;52.520;13.464;2022-10-31T16:14:52;16.00;99.90
37754;DHT22;23596;52.520;13.464;2022-10-31T16:17:20;16.00;99.90
37754;DHT22;23596;52.520;13.464;2022-10-31T16:20:04;15.90;99.90
37754;DHT22;23596;52.520;13.464;2022-10-31T16:22:35;15.90;99.90
37754;DHT22;23596;52.520;13.464;2022-10-31T16:25:10;15.80;99.90
37754;DHT22;23596;52.520;13.464;2022-10-31T16:27:37;15.80;99.90
37754;DHT22;23596;52.520;13.464;2022-10-31T16:32:57;15.80;99.90
37754;DHT22;23596;52.520;13.464;2022-10-31T16:35:35;15.70;99.90
37754;DHT22;23596;52.520;13.464;2022-10-31T16:38:01;15.70;99.90
37754;DHT22;23596;52.520;13.464;2022-10-31T16:40:26;15.70;99.90
37754;DHT22;23596;52.520;13.464;2022-10-31T16:42:52;15.60;99.90
37754;DHT22;23596;52.520;13.464;2022-10-31T16:45:21;15.60;99.90
37754;DHT22;23596;52.520;13.464;2022-10-31T16:47:48;15.60;99.90
37754;DHT22;23596;52.520;13.464;2022-10-31T16:50:25;15.50;99.90
37754;DHT22;23596;52.520;13.464;2022-10-31T16:52:51;15.50;99.90
37754;DHT22;23596;52.520;13.464;2022-10-31T16:55:19;15.50;99.90
37754;DHT22;23596;52.520;13.464;2022-10-31T16:57:55;15.40;99.90
37754;DHT22;23596;52.520;13.464;2022-10-31T17:00:23;15.40;99.90
37754;DHT22;23596;52.520;13.464;2022-10-31T17:02:51;15.40;99.90
37754;DHT22;23596;52.520;13.464;2022-10-31T17:05:20;15.30;99.90
37754;DHT22;23596;52.520;13.464;2022-10-31T17:07:46;15.30;99.90
37754;DHT22;23596;52.520;13.464;2022-10-31T17:10:13;15.30;99.90
37754;DHT22;23596;52.520;13.464;2022-10-31T17:12:40;15.20;99.90
37754;DHT22;23596;52.520;13.464;2022-10-31T17:15:14;15.20;99.90
37754;DHT22;23596;52.520;13.464;2022-10-31T17:17:40;15.20;99.90
37754;DHT22;23596;52.520;13.464;2022-10-31T17:20:27;15.20;99.90
37754;DHT22;23596;52.520;13.464;2022-10-31T17:22:53;15.10;99.90
37754;DHT22;23596;52.520;13.464;2022-10-31T17:25:25;15.10;99.90
37754;DHT22;23596;52.520;13.464;2022-10-31T17:27:52;15.10;99.90